sensor_id;sensor_type;location;lat;lon;timestamp;pressure;altitude;pressure_sealevel;temperature;humidity
18167;BME280;9208;42.688;23.404;2023-05-29T00:02:24;95257.66;;;16.76;100.00
18167;BME280;9208;42.688;23.404;2023-05-29T00:04:50;95261.09;;;16.82;100.00
18167;BME280;9208;42.688;23.404;2023-05-29T00:07:16;95265.66;;;16.80;100.00
18167;BME280;9208;42.688;23.404;2023-05-29T00:09:41;95261.41;;;16.79;100.00
18167;BME280;9208;42.688;23.404;2023-05-29T00:12:07;95266.88;;;16.84;100.00
18167;BME280;9208;42.688;23.404;2023-05-29T00:14:32;95255.56;;;16.82;100.00
18167;BME280;9208;42.688;23.404;2023-05-29T00:16:58;95261.66;;;16.81;100.00
18167;BME280;9208;42.688;23.404;2023-05-29T00:19:23;95266.78;;;16.71;100.00
18167;BME280;9208;42.688;23.404;2023-05-29T00:21:50;95263.56;;;16.67;100.00
18167;BME280;9208;42.688;23.404;2023-05-29T00:24:18;95263.63;;;16.62;100.00
18167;BME280;9208;42.688;23.404;2023-05-29T00:26:45;95259.41;;;16.55;100.00
18167;BME280;9208;42.688;23.404;2023-05-29T00:29:10;95261.91;;;16.59;100.00
18167;BME280;9208;42.688;23.404;2023-05-29T00:31:36;95254.94;;;16.52;100.00
18167;BME280;9208;42.688;23.404;2023-05-29T00:34:02;95258.00;;;16.49;100.00
18167;BME280;9208;42.688;23.404;2023-05-29T00:36:27;95245.28;;;16.35;100.00
18167;BME280;9208;42.688;23.404;2023-05-29T00:38:54;95257.34;;;16.37;100.00
18167;BME280;9208;42.688;23.404;2023-05-29T00:41:20;95253.22;;;16.25;100.00
18167;BME280;9208;42.688;23.404;2023-05-29T00:43:46;95256.94;;;16.28;100.00
18167;BME280;9208;42.688;23.404;2023-05-29T00:46:13;95256.38;;;16.11;100.00
18167;BME280;9208;42.688;23.404;2023-05-29T00:48:41;95250.22;;;15.99;100.00
18167;BME280;9208;42.688;23.404;2023-05-29T00:51:08;95250.53;;;15.90;100.00
18167;BME280;9208;42.688;23.404;2023-05-29T00:53:35;95248.53;;;15.91;100.00
18167;BME280;9208;42.688;23.404;2023-05-29T00:56:01;95251.22;;;15.72;100.00
18167;BME280;9208;42.688;23.404;2023-05-29T00:58:27;95249.75;;;15.66;100.00
18167;BME280;9208;42.688;23.404;2023-05-29T01:00:53;95252.81;;;15.62;100.00
18167;BME280;9208;42.688;23.404;2023-05-29T01:03:20;95260.31;;;15.67;100.00
18167;BME280;9208;42.688;23.404;2023-05-29T01:05:45;95250.56;;;15.61;100.00
18167;BME280;9208;42.688;23.404;2023-05-29T01:08:14;95256.31;;;15.63;100.00
18167;BME280;9208;42.688;23.404;2023-05-29T01:10:45;95250.09;;;15.57;100.00
18167;BME280;9208;42.688;23.404;2023-05-29T01:13:19;95251.84;;;15.60;100.00
18167;BME280;9208;42.688;23.404;2023-05-29T01:15:53;95258.84;;;15.61;100.00
18167;BME280;9208;42.688;23.404;2023-05-29T01:28:32;95254.47;;;15.41;100.00
18167;BME280;9208;42.688;23.404;2023-05-29T01:31:00;95248.19;;;15.41;100.00
18167;BME280;9208;42.688;23.404;2023-05-29T01:33:27;95250.50;;;15.37;100.00
18167;BME280;9208;42.688;23.404;2023-05-29T01:35:52;95246.19;;;15.41;100.00
18167;BME280;9208;42.688;23.404;2023-05-29T01:38:18;95247.19;;;15.44;100.00
18167;BME280;9208;42.688;23.404;2023-05-29T01:40:44;95247.97;;;15.39;100.00
18167;BME280;9208;42.688;23.404;2023-05-29T01:43:10;95239.69;;;15.39;100.00
18167;BME280;9208;42.688;23.404;2023-05-29T01:45:36;95244.44;;;15.38;100.00
18167;BME280;9208;42.688;23.404;2023-05-29T01:48:02;95242.66;;;15.41;100.00
18167;BME280;9208;42.688;23.404;2023-05-29T01:50:28;95233.94;;;15.37;100.00
18167;BME280;9208;42.688;23.404;2023-05-29T01:52:54;95244.22;;;15.36;100.00
18167;BME280;9208;42.688;23.404;2023-05-29T01:55:20;95243.50;;;15.30;100.00
18167;BME280;9208;42.688;23.404;2023-05-29T01:57:45;95241.28;;;15.23;100.00
18167;BME280;9208;42.688;23.404;2023-05-29T02:00:12;95235.97;;;15.25;100.00
18167;BME280;9208;42.688;23.404;2023-05-29T02:02:38;95232.28;;;15.17;100.00
18167;BME280;9208;42.688;23.404;2023-05-29T02:05:05;95242.59;;;15.11;100.00
18167;BME280;9208;42.688;23.404;2023-05-29T02:07:30;95230.31;;;15.12;100.00
18167;BME280;9208;42.688;23.404;2023-05-29T02:09:56;95233.31;;;15.14;100.00
18167;BME280;9208;42.688;23.404;2023-05-29T02:12:21;95233.34;;;15.09;100.00
18167;BME280;9208;42.688;23.404;2023-05-29T02:14:47;95224.81;;;15.07;100.00
18167;BME280;9208;42.688;23.404;2023-05-29T02:17:13;95239.13;;;15.05;100.00
18167;BME280;9208;42.688;23.404;2023-05-29T02:19:40;95229.38;;;14.99;100.00
18167;BME280;9208;42.688;23.404;2023-05-29T02:22:05;95232.84;;;15.05;100.00
18167;BME280;9208;42.688;23.404;2023-05-29T02:24:31;95230.31;;;15.12;100.00
18167;BME280;9208;42.688;23.404;2023-05-29T02:26:56;95234.78;;;15.15;100.00
18167;BME280;9208;42.688;23.404;2023-05-29T02:29:22;95235.31;;;15.14;100.00
18167;BME280;9208;42.688;23.404;2023-05-29T02:31:47;95234.56;;;15.13;100.00
18167;BME280;9208;42.688;23.404;2023-05-29T02:34:12;95237.84;;;15.12;100.00
18167;BME280;9208;42.688;23.404;2023-05-29T02:36:38;95244.56;;;15.16;100.00
18167;BME280;9208;42.688;23.404;2023-05-29T02:39:07;95242.53;;;15.22;100.00
18167;BME280;9208;42.688;23.404;2023-05-29T02:41:32;95244.31;;;15.20;100.00
18167;BME280;9208;42.688;23.404;2023-05-29T02:43:58;95247.09;;;15.20;100.00
18167;BME280;9208;42.688;23.404;2023-05-29T02:46:23;95247.59;;;15.18;100.00
18167;BME280;9208;42.688;23.404;2023-05-29T02:48:49;95254.13;;;15.15;100.00
18167;BME280;9208;42.688;23.404;2023-05-29T02:51:14;95251.94;;;15.08;100.00
18167;BME280;9208;42.688;23.404;2023-05-29T02:53:40;95244.13;;;15.12;100.00
18167;BME280;9208;42.688;23.404;2023-05-29T02:56:06;95241.31;;;15.18;100.00
18167;BME280;9208;42.688;23.404;2023-05-29T02:58:33;95250.31;;;15.24;100.00
18167;BME280;9208;42.688;23.404;2023-05-29T03:01:00;95249.59;;;15.18;100.00
18167;BME280;9208;42.688;23.404;2023-05-29T03:03:27;95243.81;;;15.21;100.00
18167;BME280;9208;42.688;23.404;2023-05-29T03:05:53;95251.56;;;15.23;100.00
18167;BME280;9208;42.688;23.404;2023-05-29T03:08:18;95252.50;;;15.31;100.00
18167;BME280;9208;42.688;23.404;2023-05-29T03:10:44;95252.78;;;15.27;100.00
18167;BME280;9208;42.688;23.404;2023-05-29T03:13:10;95250.00;;;15.33;100.00
18167;BME280;9208;42.688;23.404;2023-05-29T03:15:35;95248.78;;;15.23;100.00
18167;BME280;9208;42.688;23.404;2023-05-29T03:18:01;95248.53;;;15.26;100.00
18167;BME280;9208;42.688;23.404;2023-05-29T03:20:26;95244.03;;;15.23;100.00
18167;BME280;9208;42.688;23.404;2023-05-29T03:22:53;95251.63;;;15.17;100.00
18167;BME280;9208;42.688;23.404;2023-05-29T03:25:19;95254.41;;;15.12;100.00
18167;BME280;9208;42.688;23.404;2023-05-29T03:27:45;95253.84;;;15.19;100.00
18167;BME280;9208;42.688;23.404;2023-05-29T03:30:11;95261.13;;;15.22;100.00
18167;BME280;9208;42.688;23.404;2023-05-29T03:32:37;95261.38;;;15.24;100.00
18167;BME280;9208;42.688;23.404;2023-05-29T03:35:03;95270.59;;;15.32;100.00
18167;BME280;9208;42.688;23.404;2023-05-29T03:37:29;95271.53;;;15.45;100.00
18167;BME280;9208;42.688;23.404;2023-05-29T03:39:54;95278.25;;;15.50;100.00
18167;BME280;9208;42.688;23.404;2023-05-29T03:42:20;95277.53;;;15.49;100.00
18167;BME280;9208;42.688;23.404;2023-05-29T03:44:45;95281.25;;;15.57;100.00
18167;BME280;9208;42.688;23.404;2023-05-29T03:47:11;95280.44;;;15.62;100.00
18167;BME280;9208;42.688;23.404;2023-05-29T03:49:36;95282.13;;;15.71;100.00
18167;BME280;9208;42.688;23.404;2023-05-29T03:52:02;95270.88;;;15.63;100.00
18167;BME280;9208;42.688;23.404;2023-05-29T03:54:28;95277.19;;;15.64;100.00
18167;BME280;9208;42.688;23.404;2023-05-29T03:56:53;95268.09;;;15.69;100.00
18167;BME280;9208;42.688;23.404;2023-05-29T03:59:19;95284.59;;;15.74;100.00
18167;BME280;9208;42.688;23.404;2023-05-29T04:01:44;95282.59;;;15.75;100.00
18167;BME280;9208;42.688;23.404;2023-05-29T04:04:10;95286.81;;;15.81;100.00
18167;BME280;9208;42.688;23.404;2023-05-29T04:06:35;95288.03;;;15.86;100.00
18167;BME280;9208;42.688;23.404;2023-05-29T04:09:04;95296.53;;;15.93;100.00
18167;BME280;9208;42.688;23.404;2023-05-29T04:11:34;95300.19;;;16.01;100.00
18167;BME280;9208;42.688;23.404;2023-05-29T04:14:00;95302.16;;;16.06;100.00
18167;BME280;9208;42.688;23.404;2023-05-29T04:16:27;95310.41;;;16.12;100.00
18167;BME280;9208;42.688;23.404;2023-05-29T04:18:53;95305.34;;;16.16;100.00
18167;BME280;9208;42.688;23.404;2023-05-29T04:21:19;95300.00;;;16.23;100.00
18167;BME280;9208;42.688;23.404;2023-05-29T04:23:45;95308.25;;;16.29;100.00
18167;BME280;9208;42.688;23.404;2023-05-29T04:26:11;95312.44;;;16.35;100.00
18167;BME280;9208;42.688;23.404;2023-05-29T04:28:40;95307.91;;;16.38;100.00
18167;BME280;9208;42.688;23.404;2023-05-29T04:31:07;95310.16;;;16.39;100.00
18167;BME280;9208;42.688;23.404;2023-05-29T04:33:33;95311.88;;;16.42;100.00
18167;BME280;9208;42.688;23.404;2023-05-29T04:36:02;95317.31;;;16.53;100.00
18167;BME280;9208;42.688;23.404;2023-05-29T04:38:29;95312.09;;;16.50;100.00
18167;BME280;9208;42.688;23.404;2023-05-29T04:40:55;95307.78;;;16.49;100.00
18167;BME280;9208;42.688;23.404;2023-05-29T04:43:24;95316.09;;;16.49;100.00
18167;BME280;9208;42.688;23.404;2023-05-29T04:45:52;95314.59;;;16.48;100.00
18167;BME280;9208;42.688;23.404;2023-05-29T04:48:18;95315.06;;;16.52;100.00
18167;BME280;9208;42.688;23.404;2023-05-29T04:50:46;95318.66;;;16.47;100.00
18167;BME280;9208;42.688;23.404;2023-05-29T04:53:13;95311.31;;;16.49;100.00
18167;BME280;9208;42.688;23.404;2023-05-29T04:55:39;95317.31;;;16.53;100.00
18167;BME280;9208;42.688;23.404;2023-05-29T04:58:04;95322.09;;;16.53;100.00
18167;BME280;9208;42.688;23.404;2023-05-29T05:00:30;95330.41;;;16.53;100.00
18167;BME280;9208;42.688;23.404;2023-05-29T05:02:55;95326.81;;;16.58;100.00
18167;BME280;9208;42.688;23.404;2023-05-29T05:05:21;95333.41;;;16.55;100.00
18167;BME280;9208;42.688;23.404;2023-05-29T05:07:49;95332.66;;;16.54;100.00
18167;BME280;9208;42.688;23.404;2023-05-29T05:10:15;95337.63;;;16.61;100.00
18167;BME280;9208;42.688;23.404;2023-05-29T05:12:41;95342.63;;;16.63;100.00
18167;BME280;9208;42.688;23.404;2023-05-29T05:15:07;95338.59;;;16.64;100.00
18167;BME280;9208;42.688;23.404;2023-05-29T05:17:32;95339.56;;;16.66;100.00
18167;BME280;9208;42.688;23.404;2023-05-29T05:19:58;95340.84;;;16.65;100.00
18167;BME280;9208;42.688;23.404;2023-05-29T05:22:23;95344.59;;;16.68;100.00
18167;BME280;9208;42.688;23.404;2023-05-29T05:24:49;95341.75;;;16.73;100.00
18167;BME280;9208;42.688;23.404;2023-05-29T05:27:14;95351.28;;;16.78;100.00
18167;BME280;9208;42.688;23.404;2023-05-29T05:29:40;95352.25;;;16.80;100.00
18167;BME280;9208;42.688;23.404;2023-05-29T05:32:05;95346.41;;;16.84;100.00
18167;BME280;9208;42.688;23.404;2023-05-29T05:34:31;95343.59;;;16.89;100.00
18167;BME280;9208;42.688;23.404;2023-05-29T05:36:57;95348.59;;;16.91;100.00
18167;BME280;9208;42.688;23.404;2023-05-29T05:39:22;95354.59;;;16.95;100.00
18167;BME280;9208;42.688;23.404;2023-05-29T05:41:48;95339.22;;;16.94;100.00
18167;BME280;9208;42.688;23.404;2023-05-29T05:44:13;95343.44;;;17.00;100.00
18167;BME280;9208;42.688;23.404;2023-05-29T05:46:38;95348.25;;;17.00;100.00
18167;BME280;9208;42.688;23.404;2023-05-29T05:49:04;95340.84;;;17.08;100.00
18167;BME280;9208;42.688;23.404;2023-05-29T05:51:29;95347.81;;;17.14;100.00
18167;BME280;9208;42.688;23.404;2023-05-29T05:53:56;95344.44;;;17.21;100.00
18167;BME280;9208;42.688;23.404;2023-05-29T05:56:21;95345.41;;;17.24;100.00
18167;BME280;9208;42.688;23.404;2023-05-29T05:58:47;95344.81;;;17.31;100.00
18167;BME280;9208;42.688;23.404;2023-05-29T06:01:13;95342.72;;;17.37;100.00
18167;BME280;9208;42.688;23.404;2023-05-29T06:03:39;95343.41;;;17.43;100.00
18167;BME280;9208;42.688;23.404;2023-05-29T06:06:05;95345.16;;;17.46;100.00
18167;BME280;9208;42.688;23.404;2023-05-29T06:08:31;95348.06;;;17.53;100.00
18167;BME280;9208;42.688;23.404;2023-05-29T06:10:56;95353.53;;;17.59;100.00
18167;BME280;9208;42.688;23.404;2023-05-29T06:13:22;95345.13;;;17.64;100.00
18167;BME280;9208;42.688;23.404;2023-05-29T06:15:47;95356.50;;;17.61;100.00
18167;BME280;9208;42.688;23.404;2023-05-29T06:18:13;95354.72;;;17.63;100.00
18167;BME280;9208;42.688;23.404;2023-05-29T06:20:38;95360.56;;;17.60;100.00
18167;BME280;9208;42.688;23.404;2023-05-29T06:23:03;95355.09;;;17.54;100.00
18167;BME280;9208;42.688;23.404;2023-05-29T06:25:29;95359.97;;;17.67;100.00
18167;BME280;9208;42.688;23.404;2023-05-29T06:27:59;95359.97;;;17.67;100.00
18167;BME280;9208;42.688;23.404;2023-05-29T06:30:25;95356.06;;;17.75;100.00
18167;BME280;9208;42.688;23.404;2023-05-29T06:32:51;95355.75;;;17.79;100.00
18167;BME280;9208;42.688;23.404;2023-05-29T06:35:16;95354.81;;;17.89;100.00
18167;BME280;9208;42.688;23.404;2023-05-29T06:37:41;95354.97;;;17.97;100.00
18167;BME280;9208;42.688;23.404;2023-05-29T06:40:07;95362.16;;;18.05;100.00
18167;BME280;9208;42.688;23.404;2023-05-29T06:42:33;95357.47;;;18.13;100.00
18167;BME280;9208;42.688;23.404;2023-05-29T06:44:58;95358.13;;;18.19;100.00
18167;BME280;9208;42.688;23.404;2023-05-29T06:47:24;95356.91;;;18.33;100.00
18167;BME280;9208;42.688;23.404;2023-05-29T06:49:49;95354.34;;;18.35;100.00
18167;BME280;9208;42.688;23.404;2023-05-29T06:52:15;95351.28;;;18.39;100.00
18167;BME280;9208;42.688;23.404;2023-05-29T06:54:41;95355.44;;;18.46;100.00
18167;BME280;9208;42.688;23.404;2023-05-29T06:57:07;95354.28;;;18.54;100.00
18167;BME280;9208;42.688;23.404;2023-05-29T06:59:32;95351.09;;;18.63;100.00
18167;BME280;9208;42.688;23.404;2023-05-29T07:01:58;95355.03;;;18.68;100.00
18167;BME280;9208;42.688;23.404;2023-05-29T07:04:23;95355.34;;;18.77;100.00
18167;BME280;9208;42.688;23.404;2023-05-29T07:06:49;95353.66;;;18.87;100.00
18167;BME280;9208;42.688;23.404;2023-05-29T07:09:14;95359.00;;;18.98;100.00
18167;BME280;9208;42.688;23.404;2023-05-29T07:11:40;95356.22;;;18.98;100.00
18167;BME280;9208;42.688;23.404;2023-05-29T07:14:05;95358.47;;;19.00;100.00
18167;BME280;9208;42.688;23.404;2023-05-29T07:16:30;95361.78;;;19.11;100.00
18167;BME280;9208;42.688;23.404;2023-05-29T07:18:56;95364.13;;;19.20;100.00
18167;BME280;9208;42.688;23.404;2023-05-29T07:21:21;95363.38;;;19.33;100.00
18167;BME280;9208;42.688;23.404;2023-05-29T07:23:47;95358.16;;;19.29;100.00
18167;BME280;9208;42.688;23.404;2023-05-29T07:26:13;95352.13;;;19.38;100.00
18167;BME280;9208;42.688;23.404;2023-05-29T07:28:38;95355.25;;;19.35;100.00
18167;BME280;9208;42.688;23.404;2023-05-29T07:31:04;95357.06;;;19.32;100.00
18167;BME280;9208;42.688;23.404;2023-05-29T07:33:29;95355.25;;;19.35;100.00
18167;BME280;9208;42.688;23.404;2023-05-29T07:35:54;95353.19;;;19.48;100.00
18167;BME280;9208;42.688;23.404;2023-05-29T07:38:20;95359.59;;;19.56;100.00
18167;BME280;9208;42.688;23.404;2023-05-29T07:40:46;95358.69;;;19.74;100.00
18167;BME280;9208;42.688;23.404;2023-05-29T07:43:11;95356.09;;;19.76;100.00
18167;BME280;9208;42.688;23.404;2023-05-29T07:45:37;95360.03;;;19.81;100.00
18167;BME280;9208;42.688;23.404;2023-05-29T07:48:02;95356.38;;;19.86;100.00
18167;BME280;9208;42.688;23.404;2023-05-29T07:50:28;95358.81;;;19.89;100.00
18167;BME280;9208;42.688;23.404;2023-05-29T07:52:53;95348.53;;;19.97;100.00
18167;BME280;9208;42.688;23.404;2023-05-29T07:55:21;95353.69;;;19.93;100.00
18167;BME280;9208;42.688;23.404;2023-05-29T07:57:46;95349.34;;;20.05;100.00
18167;BME280;9208;42.688;23.404;2023-05-29T08:00:12;95355.22;;;20.15;100.00
18167;BME280;9208;42.688;23.404;2023-05-29T08:02:38;95356.16;;;20.17;100.00
18167;BME280;9208;42.688;23.404;2023-05-29T08:05:04;95361.72;;;20.17;100.00
18167;BME280;9208;42.688;23.404;2023-05-29T08:07:29;95362.66;;;20.20;100.00
18167;BME280;9208;42.688;23.404;2023-05-29T08:09:55;95355.22;;;20.15;100.00
18167;BME280;9208;42.688;23.404;2023-05-29T08:12:21;95355.28;;;20.22;100.00
18167;BME280;9208;42.688;23.404;2023-05-29T08:14:47;95357.72;;;20.26;100.00
18167;BME280;9208;42.688;23.404;2023-05-29T08:17:12;95350.19;;;20.34;100.00
18167;BME280;9208;42.688;23.404;2023-05-29T08:19:37;95348.38;;;20.36;100.00
18167;BME280;9208;42.688;23.404;2023-05-29T08:22:03;95348.75;;;20.40;100.00
18167;BME280;9208;42.688;23.404;2023-05-29T08:24:28;95357.84;;;20.41;100.00
18167;BME280;9208;42.688;23.404;2023-05-29T08:26:54;95355.13;;;20.48;100.00
18167;BME280;9208;42.688;23.404;2023-05-29T08:29:19;95360.97;;;20.58;100.00
18167;BME280;9208;42.688;23.404;2023-05-29T08:31:45;95361.97;;;20.68;100.00
18167;BME280;9208;42.688;23.404;2023-05-29T08:34:11;95363.25;;;20.67;100.00
18167;BME280;9208;42.688;23.404;2023-05-29T08:36:36;95358.09;;;20.71;100.00
18167;BME280;9208;42.688;23.404;2023-05-29T08:39:02;95363.56;;;20.84;100.00
18167;BME280;9208;42.688;23.404;2023-05-29T08:44:16;95349.38;;;20.74;100.00
18167;BME280;9208;42.688;23.404;2023-05-29T08:46:46;95342.91;;;20.79;100.00
18167;BME280;9208;42.688;23.404;2023-05-29T08:49:14;95339.44;;;20.86;100.00
18167;BME280;9208;42.688;23.404;2023-05-29T08:51:43;95344.72;;;20.97;100.00
18167;BME280;9208;42.688;23.404;2023-05-29T08:54:14;95334.94;;;21.11;100.00
18167;BME280;9208;42.688;23.404;2023-05-29T08:56:40;95335.03;;;21.26;100.00
18167;BME280;9208;42.688;23.404;2023-05-29T08:59:07;95342.84;;;21.28;100.00
18167;BME280;9208;42.688;23.404;2023-05-29T09:01:34;95331.34;;;21.31;100.00
18167;BME280;9208;42.688;23.404;2023-05-29T09:04:00;95335.78;;;21.27;100.00
18167;BME280;9208;42.688;23.404;2023-05-29T09:06:26;95338.03;;;21.36;100.00
18167;BME280;9208;42.688;23.404;2023-05-29T09:08:52;95333.59;;;21.33;100.00
18167;BME280;9208;42.688;23.404;2023-05-29T09:11:18;95331.94;;;21.45;100.00
18167;BME280;9208;42.688;23.404;2023-05-29T09:13:46;95333.47;;;21.53;99.51
18167;BME280;9208;42.688;23.404;2023-05-29T09:16:12;95324.75;;;21.64;99.84
18167;BME280;9208;42.688;23.404;2023-05-29T09:18:37;95321.59;;;21.68;99.89
18167;BME280;9208;42.688;23.404;2023-05-29T09:21:07;95324.25;;;21.73;100.00
18167;BME280;9208;42.688;23.404;2023-05-29T09:23:34;95319.97;;;21.72;99.47
18167;BME280;9208;42.688;23.404;2023-05-29T09:26:02;95338.16;;;21.66;97.43
18167;BME280;9208;42.688;23.404;2023-05-29T09:28:30;95312.84;;;21.64;98.77
18167;BME280;9208;42.688;23.404;2023-05-29T09:30:56;95303.19;;;21.65;99.42
18167;BME280;9208;42.688;23.404;2023-05-29T09:33:22;95309.22;;;21.76;99.08
18167;BME280;9208;42.688;23.404;2023-05-29T09:35:49;95311.47;;;21.85;97.97
18167;BME280;9208;42.688;23.404;2023-05-29T09:38:19;95308.84;;;21.80;97.76
18167;BME280;9208;42.688;23.404;2023-05-29T09:40:45;95303.63;;;21.84;98.09
18167;BME280;9208;42.688;23.404;2023-05-29T09:43:17;95290.63;;;21.86;98.78
18167;BME280;9208;42.688;23.404;2023-05-29T09:45:49;95284.50;;;21.95;99.16
18167;BME280;9208;42.688;23.404;2023-05-29T09:48:17;95283.19;;;22.04;99.11
18167;BME280;9208;42.688;23.404;2023-05-29T09:50:44;95287.28;;;22.03;97.73
18167;BME280;9208;42.688;23.404;2023-05-29T09:53:25;95287.84;;;22.01;98.64
18167;BME280;9208;42.688;23.404;2023-05-29T09:55:52;95286.91;;;22.06;98.34
18167;BME280;9208;42.688;23.404;2023-05-29T09:58:18;95302.00;;;22.11;96.32
18167;BME280;9208;42.688;23.404;2023-05-29T10:00:44;95304.97;;;22.13;95.52
18167;BME280;9208;42.688;23.404;2023-05-29T10:03:11;95295.88;;;22.12;95.34
18167;BME280;9208;42.688;23.404;2023-05-29T10:05:40;95287.47;;;22.05;96.05
18167;BME280;9208;42.688;23.404;2023-05-29T10:08:15;95283.75;;;22.02;96.43
18167;BME280;9208;42.688;23.404;2023-05-29T10:11:02;95278.72;;;22.08;96.41
18167;BME280;9208;42.688;23.404;2023-05-29T10:13:35;95282.28;;;22.16;96.78
18167;BME280;9208;42.688;23.404;2023-05-29T10:16:03;95279.88;;;22.20;96.04
18167;BME280;9208;42.688;23.404;2023-05-29T10:18:37;95285.81;;;22.32;95.69
18167;BME280;9208;42.688;23.404;2023-05-29T10:21:03;95289.53;;;22.34;95.38
18167;BME280;9208;42.688;23.404;2023-05-29T10:23:30;95296.97;;;22.39;93.75
18167;BME280;9208;42.688;23.404;2023-05-29T10:26:08;95286.38;;;22.38;94.03
18167;BME280;9208;42.688;23.404;2023-05-29T10:28:40;95308.16;;;22.32;91.91
18167;BME280;9208;42.688;23.404;2023-05-29T10:31:16;95297.34;;;22.28;92.19
18167;BME280;9208;42.688;23.404;2023-05-29T10:34:11;95295.47;;;22.31;92.28
18167;BME280;9208;42.688;23.404;2023-05-29T10:36:44;95281.50;;;22.31;92.83
18167;BME280;9208;42.688;23.404;2023-05-29T10:39:10;95281.16;;;22.42;93.42
18167;BME280;9208;42.688;23.404;2023-05-29T10:41:35;95293.66;;;22.48;92.63
18167;BME280;9208;42.688;23.404;2023-05-29T10:49:25;95273.50;;;22.27;93.15
18167;BME280;9208;42.688;23.404;2023-05-29T10:51:51;95270.72;;;22.27;92.84
18167;BME280;9208;42.688;23.404;2023-05-29T10:54:24;95262.72;;;22.31;92.66
18167;BME280;9208;42.688;23.404;2023-05-29T10:56:58;95255.25;;;22.41;93.03
18167;BME280;9208;42.688;23.404;2023-05-29T10:59:26;95260.69;;;22.32;92.79
18167;BME280;9208;42.688;23.404;2023-05-29T11:01:54;95267.19;;;22.42;92.37
18167;BME280;9208;42.688;23.404;2023-05-29T11:06:45;95260.31;;;22.50;92.22
18167;BME280;9208;42.688;23.404;2023-05-29T11:12:23;95252.69;;;22.36;91.94
18167;BME280;9208;42.688;23.404;2023-05-29T11:15:09;95253.78;;;22.40;91.75
18167;BME280;9208;42.688;23.404;2023-05-29T11:20:07;95250.22;;;22.40;91.31
18167;BME280;9208;42.688;23.404;2023-05-29T11:25:10;95259.56;;;22.50;90.67
18167;BME280;9208;42.688;23.404;2023-05-29T11:27:44;95256.41;;;22.53;90.15
18167;BME280;9208;42.688;23.404;2023-05-29T11:30:11;95255.09;;;22.54;90.29
18167;BME280;9208;42.688;23.404;2023-05-29T11:32:39;95255.44;;;22.58;89.94
18167;BME280;9208;42.688;23.404;2023-05-29T11:35:09;95265.31;;;22.74;89.90
18167;BME280;9208;42.688;23.404;2023-05-29T11:37:38;95264.56;;;22.74;89.77
18167;BME280;9208;42.688;23.404;2023-05-29T11:40:06;95237.56;;;22.69;91.49
18167;BME280;9208;42.688;23.404;2023-05-29T11:42:33;95225.09;;;22.55;92.10
18167;BME280;9208;42.688;23.404;2023-05-29T11:45:18;95223.03;;;22.63;93.57
18167;BME280;9208;42.688;23.404;2023-05-29T11:48:02;95220.53;;;22.89;94.88
18167;BME280;9208;42.688;23.404;2023-05-29T11:50:33;95190.88;;;22.94;96.82
18167;BME280;9208;42.688;23.404;2023-05-29T11:52:59;95196.97;;;23.07;98.39
18167;BME280;9208;42.688;23.404;2023-05-29T11:55:26;95183.91;;;23.10;99.75
18167;BME280;9208;42.688;23.404;2023-05-29T11:57:59;95188.94;;;23.11;100.00
18167;BME280;9208;42.688;23.404;2023-05-29T12:00:28;95189.50;;;23.10;100.00
18167;BME280;9208;42.688;23.404;2023-05-29T12:02:57;95191.91;;;23.13;100.00
18167;BME280;9208;42.688;23.404;2023-05-29T12:05:23;95195.63;;;23.16;100.00
18167;BME280;9208;42.688;23.404;2023-05-29T12:07:52;95209.03;;;23.17;100.00
18167;BME280;9208;42.688;23.404;2023-05-29T12:10:20;95221.94;;;23.20;100.00
18167;BME280;9208;42.688;23.404;2023-05-29T12:12:53;95238.88;;;23.15;98.21
18167;BME280;9208;42.688;23.404;2023-05-29T12:15:20;95284.84;;;22.82;92.72
18167;BME280;9208;42.688;23.404;2023-05-29T12:17:48;95298.09;;;22.66;90.59
18167;BME280;9208;42.688;23.404;2023-05-29T12:20:15;95239.44;;;22.06;96.53
18167;BME280;9208;42.688;23.404;2023-05-29T12:22:43;95218.38;;;21.60;100.00
18167;BME280;9208;42.688;23.404;2023-05-29T12:25:13;95244.69;;;21.22;100.00
18167;BME280;9208;42.688;23.404;2023-05-29T12:27:40;95247.47;;;21.22;100.00
18167;BME280;9208;42.688;23.404;2023-05-29T12:30:12;95245.69;;;20.96;100.00
18167;BME280;9208;42.688;23.404;2023-05-29T12:32:43;95249.34;;;20.84;100.00
18167;BME280;9208;42.688;23.404;2023-05-29T12:35:23;95247.06;;;20.75;100.00
18167;BME280;9208;42.688;23.404;2023-05-29T12:37:57;95237.75;;;20.72;100.00
18167;BME280;9208;42.688;23.404;2023-05-29T12:40:24;95231.44;;;20.72;100.00
18167;BME280;9208;42.688;23.404;2023-05-29T12:45:19;95222.72;;;20.75;100.00
18167;BME280;9208;42.688;23.404;2023-05-29T12:50:27;95227.97;;;20.86;100.00
18167;BME280;9208;42.688;23.404;2023-05-29T12:52:58;95220.03;;;20.90;100.00
18167;BME280;9208;42.688;23.404;2023-05-29T12:55:24;95222.25;;;20.92;100.00
18167;BME280;9208;42.688;23.404;2023-05-29T12:57:49;95220.63;;;20.96;100.00
18167;BME280;9208;42.688;23.404;2023-05-29T13:00:16;95216.53;;;21.05;100.00
18167;BME280;9208;42.688;23.404;2023-05-29T13:02:41;95217.31;;;21.13;100.00
18167;BME280;9208;42.688;23.404;2023-05-29T13:05:07;95221.63;;;21.21;100.00
18167;BME280;9208;42.688;23.404;2023-05-29T13:07:33;95223.91;;;21.30;100.00
18167;BME280;9208;42.688;23.404;2023-05-29T13:09:59;95219.59;;;21.29;100.00
18167;BME280;9208;42.688;23.404;2023-05-29T13:12:25;95225.16;;;21.22;100.00
18167;BME280;9208;42.688;23.404;2023-05-29T13:14:50;95218.66;;;21.27;100.00
18167;BME280;9208;42.688;23.404;2023-05-29T13:17:16;95219.00;;;21.16;100.00
18167;BME280;9208;42.688;23.404;2023-05-29T13:19:42;95213.22;;;21.06;100.00
18167;BME280;9208;42.688;23.404;2023-05-29T13:22:08;95221.53;;;20.91;100.00
18167;BME280;9208;42.688;23.404;2023-05-29T13:24:33;95215.50;;;20.80;100.00
18167;BME280;9208;42.688;23.404;2023-05-29T13:26:59;95224.59;;;20.80;100.00